createdAt,value
2018-09-03T00:01:00.112Z,30.3
2018-09-03T00:02:01.662Z,30.3
2018-09-03T00:03:03.241Z,29.3
2018-09-03T00:04:04.809Z,30.8
2018-09-03T00:05:06.206Z,30.3
2018-09-03T00:06:07.757Z,30.3
2018-09-03T00:07:09.333Z,29.8
2018-09-03T00:08:11.330Z,30.3
2018-09-03T00:09:12.909Z,30.3
2018-09-03T00:10:14.305Z,29.8
2018-09-03T00:11:15.859Z,29.8
2018-09-03T00:12:17.418Z,29.3
2018-09-03T00:13:19.017Z,30.3
2018-09-03T00:14:20.593Z,30.3
2018-09-03T00:15:22.130Z,29.8
2018-09-03T00:16:23.697Z,29.8
2018-09-03T00:17:25.275Z,29.8
2018-09-03T00:18:26.849Z,30.3
2018-09-03T00:19:28.412Z,29.3
2018-09-03T00:20:29.973Z,29.8
2018-09-03T00:21:31.529Z,29.8
2018-09-03T00:22:33.107Z,29.8
2018-09-03T00:23:34.678Z,29.8
2018-09-03T00:24:36.079Z,30.3
2018-09-03T00:25:37.672Z,30.3
2018-09-03T00:26:39.218Z,29.8
2018-09-03T00:27:40.808Z,29.8
2018-09-03T00:28:42.369Z,30.3
2018-09-03T00:29:43.926Z,29.8
2018-09-03T00:30:45.513Z,29.8
2018-09-03T00:31:46.907Z,30.3
2018-09-03T00:32:48.312Z,29.3
2018-09-03T00:33:49.886Z,29.3
2018-09-03T00:34:51.471Z,29.8
2018-09-03T00:35:53.046Z,30.3
2018-09-03T00:36:54.596Z,29.8
2018-09-03T00:37:56.140Z,29.3
2018-09-03T00:38:57.707Z,29.8
2018-09-03T00:39:59.286Z,29.3
2018-09-03T00:41:00.876Z,29.8
2018-09-03T00:42:02.437Z,29.3
2018-09-03T00:43:04.005Z,29.3
2018-09-03T00:44:05.572Z,28.3
2018-09-03T00:45:07.146Z,28.8
2018-09-03T00:46:08.541Z,29.3
2018-09-03T00:47:09.937Z,29.8
2018-09-03T00:48:11.526Z,29.3
2018-09-03T00:49:13.092Z,29.3
2018-09-03T00:50:14.646Z,29.8
2018-09-03T00:51:16.198Z,29.8
2018-09-03T00:52:17.775Z,29.3
2018-09-03T00:53:19.383Z,29.3
2018-09-03T00:54:20.945Z,29.3
2018-09-03T00:55:22.529Z,29.8
2018-09-03T00:56:23.916Z,29.3
2018-09-03T00:57:25.493Z,28.8
2018-09-03T00:58:27.072Z,29.3
2018-09-03T00:59:28.646Z,29.3
2018-09-03T01:00:30.196Z,28.8
2018-09-03T01:01:31.770Z,28.8
2018-09-03T01:02:33.336Z,29.3
2018-09-03T01:03:34.891Z,29.8
2018-09-03T01:04:36.472Z,28.8
2018-09-03T01:05:38.030Z,29.3
2018-09-03T01:06:39.598Z,28.8
2018-09-03T01:07:41.188Z,28.8
2018-09-03T01:08:42.757Z,28.8
2018-09-03T01:09:44.366Z,29.8
2018-09-03T01:10:45.922Z,28.8
2018-09-03T01:11:47.341Z,28.8
2018-09-03T01:12:48.907Z,29.8
2018-09-03T01:13:50.523Z,29.8
2018-09-03T01:14:52.310Z,29.8
2018-09-03T01:15:53.935Z,29.8
2018-09-03T01:16:55.507Z,29.3
2018-09-03T01:17:57.095Z,29.3
2018-09-03T01:18:58.676Z,29.3
2018-09-03T01:20:00.233Z,29.3
2018-09-03T01:21:01.654Z,29.3
2018-09-03T01:22:03.221Z,29.3
2018-09-03T01:23:04.779Z,29.3
2018-09-03T01:24:06.368Z,29.8
2018-09-03T01:25:07.916Z,28.8
2018-09-03T01:26:09.519Z,29.3
2018-09-03T01:27:11.279Z,29.8
2018-09-03T01:28:12.831Z,29.3
2018-09-03T01:29:14.401Z,29.3
2018-09-03T01:30:15.978Z,29.3
2018-09-03T01:31:17.540Z,29.8
2018-09-03T01:32:19.109Z,30.3
2018-09-03T01:33:20.677Z,29.8
2018-09-03T01:34:22.251Z,29.8
2018-09-03T01:35:23.853Z,30.3
2018-09-03T01:36:25.416Z,29.8
2018-09-03T01:37:26.995Z,30.3
2018-09-03T01:38:28.562Z,31.3
2018-09-03T01:39:30.143Z,30.8
2018-09-03T01:40:31.559Z,30.3
2018-09-03T01:41:33.054Z,31.3
2018-09-03T01:42:34.654Z,31.3
2018-09-03T01:43:36.239Z,31.3
2018-09-03T01:44:37.662Z,31.3
2018-09-03T01:45:39.048Z,31.8
2018-09-03T01:46:40.623Z,31.3
2018-09-03T01:47:42.200Z,31.8
2018-09-03T01:48:43.764Z,31.8
2018-09-03T01:49:45.154Z,31.8
2018-09-03T01:50:46.756Z,32.3
2018-09-03T01:51:48.333Z,32.7
2018-09-03T01:52:49.744Z,32.3
2018-09-03T01:53:51.146Z,32.7
2018-09-03T01:54:52.573Z,32.7
2018-09-03T01:55:54.135Z,32.3
2018-09-03T01:56:55.702Z,32.7
2018-09-03T01:57:57.125Z,32.7
2018-09-03T01:58:58.747Z,32.3
2018-09-03T02:00:00.151Z,32.3
2018-09-03T02:01:01.932Z,32.7
2018-09-03T02:02:03.493Z,32.7
2018-09-03T02:03:05.274Z,32.7
2018-09-03T02:04:06.888Z,32.3
2018-09-03T02:05:08.491Z,33.2
2018-09-03T02:06:10.055Z,33.2
2018-09-03T02:07:11.682Z,32.7
2018-09-03T02:08:13.060Z,32.7
2018-09-03T02:09:14.475Z,32.7
2018-09-03T02:10:16.045Z,32.7
2018-09-03T02:11:17.607Z,32.7
2018-09-03T02:12:19.163Z,32.7
2018-09-03T02:13:20.727Z,32.3
2018-09-03T02:14:22.297Z,32.7
2018-09-03T02:15:23.868Z,33.2
2018-09-03T02:16:25.446Z,32.7
2018-09-03T02:17:41.724Z,32.3
2018-09-03T02:18:43.288Z,32.7
2018-09-03T02:19:44.854Z,32.3
2018-09-03T02:20:46.446Z,32.7
2018-09-03T02:21:48.252Z,32.7
2018-09-03T02:22:49.819Z,32.7
2018-09-03T02:23:51.588Z,33.7
2018-09-03T02:24:53.159Z,32.3
2018-09-03T02:25:54.586Z,31.8
2018-09-03T02:26:56.136Z,32.7
2018-09-03T02:27:57.678Z,32.3
2018-09-03T02:28:59.293Z,32.7
2018-09-03T02:30:00.877Z,32.7
2018-09-03T02:31:02.425Z,33.2
2018-09-03T02:32:04.006Z,32.7
2018-09-03T02:33:05.565Z,33.2
2018-09-03T02:34:07.161Z,32.7
2018-09-03T02:35:08.724Z,33.2
2018-09-03T02:36:10.324Z,32.3
2018-09-03T02:37:11.749Z,32.3
2018-09-03T02:38:13.307Z,32.7
2018-09-03T02:39:14.870Z,33.2
2018-09-03T02:40:16.434Z,33.2
2018-09-03T02:41:18.003Z,32.7
2018-09-03T02:42:19.580Z,32.7
2018-09-03T02:43:21.146Z,32.7
2018-09-03T02:44:22.728Z,32.7
2018-09-03T02:45:24.327Z,32.7
2018-09-03T02:46:25.896Z,32.7
2018-09-03T02:47:27.478Z,33.2
2018-09-03T02:48:29.044Z,32.7
2018-09-03T02:49:30.630Z,32.3
2018-09-03T02:50:32.040Z,32.7
2018-09-03T02:51:33.587Z,32.7
2018-09-03T02:52:35.173Z,32.3
2018-09-03T02:53:36.735Z,33.2
2018-09-03T02:54:38.304Z,32.3
2018-09-03T02:55:39.942Z,32.7
2018-09-03T02:56:41.526Z,32.7
2018-09-03T02:57:43.071Z,32.3
2018-09-03T02:58:44.641Z,33.2
2018-09-03T02:59:46.207Z,32.7
2018-09-03T03:00:47.767Z,32.7
2018-09-03T03:01:49.368Z,32.7
2018-09-03T03:02:50.957Z,32.7
2018-09-03T03:03:52.561Z,32.7
2018-09-03T03:04:54.145Z,32.3
2018-09-03T03:05:55.725Z,32.7
2018-09-03T03:06:57.364Z,32.7
2018-09-03T03:07:58.776Z,33.2
2018-09-03T03:09:00.369Z,32.7
2018-09-03T03:10:01.938Z,33.2
2018-09-03T03:11:03.499Z,31.8
2018-09-03T03:12:05.037Z,32.3
2018-09-03T03:13:06.542Z,31.8
2018-09-03T03:14:08.142Z,32.3
2018-09-03T03:15:09.740Z,32.7
2018-09-03T03:16:11.173Z,33.2
2018-09-03T03:17:12.732Z,32.7
2018-09-03T03:18:14.294Z,32.3
2018-09-03T03:19:15.700Z,31.3
2018-09-03T03:20:17.261Z,31.8
2018-09-03T03:21:18.805Z,31.8
2018-09-03T03:22:20.372Z,31.3
2018-09-03T03:23:21.925Z,31.3
2018-09-03T03:24:23.479Z,31.3
2018-09-03T03:25:25.053Z,31.3
2018-09-03T03:26:26.628Z,31.8
2018-09-03T03:27:28.196Z,31.8
2018-09-03T03:28:29.771Z,31.3
2018-09-03T03:29:31.174Z,31.3
2018-09-03T03:30:32.751Z,31.3
2018-09-03T03:31:34.322Z,31.3
2018-09-03T03:32:35.747Z,31.3
2018-09-03T03:33:37.317Z,31.8
2018-09-03T03:34:38.885Z,32.3
2018-09-03T03:35:40.275Z,32.3
2018-09-03T03:36:41.827Z,32.3
2018-09-03T03:37:43.620Z,32.3
2018-09-03T03:38:45.181Z,31.8
2018-09-03T03:39:46.930Z,32.7
2018-09-03T03:40:48.487Z,32.7
2018-09-03T03:41:49.887Z,32.7
2018-09-03T03:42:51.456Z,32.7
2018-09-03T03:43:52.850Z,32.7
2018-09-03T03:44:54.435Z,33.2
2018-09-03T03:45:56.002Z,33.2
2018-09-03T03:46:57.559Z,33.2
2018-09-03T03:47:59.143Z,33.2
2018-09-03T03:49:00.728Z,32.7
2018-09-03T03:50:01.966Z,33.7
2018-09-03T03:51:03.364Z,33.2
2018-09-03T03:52:04.926Z,33.2
2018-09-03T03:53:06.560Z,33.2
2018-09-03T03:54:08.060Z,33.2
2018-09-03T03:55:10.313Z,33.2
2018-09-03T03:56:12.178Z,32.7
2018-09-03T03:57:13.754Z,34.2
2018-09-03T03:58:15.346Z,32.7
2018-09-03T03:59:16.954Z,32.7
2018-09-03T04:00:18.510Z,34.2
2018-09-03T04:01:20.160Z,33.2
2018-09-03T04:02:21.779Z,33.7
2018-09-03T04:03:23.374Z,33.7
2018-09-03T04:04:24.954Z,33.7
2018-09-03T04:05:26.356Z,33.7
2018-09-03T04:06:27.905Z,33.7
2018-09-03T04:07:29.493Z,33.2
2018-09-03T04:08:31.078Z,33.2
2018-09-03T04:09:32.647Z,34.2
2018-09-03T04:10:34.212Z,33.2
2018-09-03T04:11:35.763Z,34.2
2018-09-03T04:12:37.319Z,33.7
2018-09-03T04:13:38.885Z,33.7
2018-09-03T04:14:40.454Z,33.7
2018-09-03T04:15:42.049Z,34.2
2018-09-03T04:16:43.650Z,33.7
2018-09-03T04:17:45.242Z,33.7
2018-09-03T04:18:46.646Z,34.2
2018-09-03T04:19:48.192Z,33.7
2018-09-03T04:20:49.768Z,33.7
2018-09-03T04:21:51.335Z,34.2
2018-09-03T04:22:53.255Z,33.7
2018-09-03T04:23:54.970Z,33.7
2018-09-03T04:24:56.393Z,33.7
2018-09-03T04:25:57.995Z,33.7
2018-09-03T04:26:59.565Z,33.7
2018-09-03T04:28:01.148Z,34.2
2018-09-03T04:29:02.695Z,34.2
2018-09-03T04:30:04.095Z,33.2
2018-09-03T04:31:05.676Z,34.2
2018-09-03T04:32:07.089Z,33.2
2018-09-03T04:33:08.494Z,33.7
2018-09-03T04:34:10.079Z,33.7
2018-09-03T04:35:11.685Z,33.2
2018-09-03T04:36:13.474Z,33.7
2018-09-03T04:37:14.866Z,33.2
2018-09-03T04:38:16.431Z,33.7
2018-09-03T04:39:18.037Z,33.2
2018-09-03T04:40:19.601Z,33.7
2018-09-03T04:41:21.191Z,33.7
2018-09-03T04:42:22.767Z,33.2
2018-09-03T04:43:24.326Z,33.2
2018-09-03T04:44:25.785Z,33.7
2018-09-03T04:45:27.338Z,33.7
2018-09-03T04:46:28.894Z,33.2
2018-09-03T04:47:30.455Z,33.2
2018-09-03T04:48:32.007Z,33.7
2018-09-03T04:49:33.571Z,33.2
2018-09-03T04:50:35.125Z,33.2
2018-09-03T04:51:36.705Z,33.2
2018-09-03T04:52:38.574Z,33.7
2018-09-03T04:53:40.138Z,33.2
2018-09-03T04:54:42.175Z,33.2
2018-09-03T04:55:43.939Z,34.2
2018-09-03T04:56:45.489Z,33.7
2018-09-03T04:57:47.058Z,33.7
2018-09-03T04:58:48.664Z,33.2
2018-09-03T04:59:50.236Z,33.7
2018-09-03T05:00:52.025Z,33.2
2018-09-03T05:01:53.596Z,33.7
2018-09-03T05:02:55.295Z,33.2
2018-09-03T05:03:57.007Z,32.7
2018-09-03T05:04:58.647Z,33.2
2018-09-03T05:06:00.392Z,33.2
2018-09-03T05:07:02.196Z,33.2
2018-09-03T05:08:03.758Z,32.7
2018-09-03T05:09:05.327Z,32.3
2018-09-03T05:10:06.906Z,32.7
2018-09-03T05:11:08.470Z,32.7
2018-09-03T05:12:09.870Z,32.7
2018-09-03T05:13:11.437Z,32.7
2018-09-03T05:14:13.013Z,32.3
2018-09-03T05:15:14.586Z,32.7
2018-09-03T05:16:16.225Z,32.3
2018-09-03T05:17:17.804Z,32.3
2018-09-03T05:18:19.380Z,32.7
2018-09-03T05:19:20.965Z,32.7
2018-09-03T05:20:22.545Z,32.3
2018-09-03T05:21:24.122Z,32.7
2018-09-03T05:22:25.677Z,33.2
2018-09-03T05:23:27.238Z,32.7
2018-09-03T05:24:28.804Z,33.2
2018-09-03T05:25:30.377Z,32.3
2018-09-03T05:26:31.964Z,33.2
2018-09-03T05:27:33.536Z,33.2
2018-09-03T05:28:49.798Z,32.7
2018-09-03T05:29:51.358Z,33.2
2018-09-03T05:30:52.955Z,32.7
2018-09-03T05:31:54.519Z,34.2
2018-09-03T05:32:56.081Z,33.7
2018-09-03T05:33:57.631Z,33.2
2018-09-03T05:34:59.193Z,33.7
2018-09-03T05:36:00.774Z,33.2
2018-09-03T05:37:02.337Z,34.2
2018-09-03T05:38:03.903Z,33.7
2018-09-03T05:39:05.471Z,33.2
2018-09-03T05:40:07.075Z,33.7
2018-09-03T05:41:08.638Z,33.2
2018-09-03T05:42:10.219Z,34.2
2018-09-03T05:43:12.358Z,33.7
2018-09-03T05:44:14.273Z,34.2
2018-09-03T05:45:15.825Z,33.7
2018-09-03T05:46:17.388Z,34.2
2018-09-03T05:47:19.190Z,34.2
2018-09-03T05:48:20.769Z,34.2
2018-09-03T05:49:22.454Z,34.2
2018-09-03T05:50:24.936Z,33.7
2018-09-03T05:51:26.917Z,33.7
2018-09-03T05:52:28.461Z,33.7
2018-09-03T05:53:30.038Z,33.7
2018-09-03T05:54:31.640Z,34.2
2018-09-03T05:55:33.073Z,34.7
2018-09-03T05:56:34.655Z,33.2
2018-09-03T05:57:36.229Z,33.7
2018-09-03T05:58:37.815Z,34.2
2018-09-03T05:59:39.206Z,33.7
2018-09-03T06:00:40.456Z,34.2
2018-09-03T06:01:42.029Z,33.7
2018-09-03T06:02:43.651Z,34.2
2018-09-03T06:03:45.218Z,34.2
2018-09-03T06:04:47.018Z,33.7
2018-09-03T06:05:48.924Z,33.7
2018-09-03T06:06:50.715Z,34.7
2018-09-03T06:07:52.269Z,33.7
2018-09-03T06:08:53.682Z,34.7
2018-09-03T06:09:55.294Z,33.7
2018-09-03T06:10:56.978Z,33.7
2018-09-03T06:11:58.637Z,34.2
2018-09-03T06:13:00.218Z,34.7
2018-09-03T06:14:01.813Z,33.7
2018-09-03T06:15:03.291Z,33.7
2018-09-03T06:16:04.889Z,34.2
2018-09-03T06:17:06.480Z,34.7
2018-09-03T06:18:08.066Z,33.7
2018-09-03T06:19:09.628Z,33.7
2018-09-03T06:20:11.175Z,32.7
2018-09-03T06:21:12.748Z,33.7
2018-09-03T06:22:14.321Z,33.7
2018-09-03T06:23:15.905Z,33.7
2018-09-03T06:24:17.474Z,33.7
2018-09-03T06:25:19.055Z,33.2
2018-09-03T06:26:20.640Z,33.7
2018-09-03T06:27:22.217Z,34.2
2018-09-03T06:28:23.804Z,33.2
2018-09-03T06:29:25.219Z,33.2
2018-09-03T06:30:26.771Z,34.2
2018-09-03T06:31:28.361Z,33.7
2018-09-03T06:32:29.933Z,34.2
2018-09-03T06:33:31.518Z,33.7
2018-09-03T06:34:32.917Z,33.7
2018-09-03T06:35:34.489Z,33.7
2018-09-03T06:36:36.072Z,33.2
2018-09-03T06:37:37.653Z,33.7
2018-09-03T06:38:39.239Z,33.7
2018-09-03T06:39:40.470Z,33.2
2018-09-03T06:40:41.878Z,33.7
2018-09-03T06:41:43.456Z,33.2
2018-09-03T06:42:45.028Z,32.7
2018-09-03T06:43:46.723Z,33.2
2018-09-03T06:44:48.404Z,32.7
2018-09-03T06:45:50.255Z,33.2
2018-09-03T06:46:51.682Z,33.2
2018-09-03T06:47:53.259Z,33.2
2018-09-03T06:48:54.823Z,32.7
2018-09-03T06:49:56.434Z,33.2
2018-09-03T06:50:58.021Z,33.2
2018-09-03T06:51:59.415Z,33.2
2018-09-03T06:53:01.002Z,32.7
2018-09-03T06:54:02.567Z,32.3
2018-09-03T06:55:03.977Z,31.8
2018-09-03T06:56:05.544Z,32.7
2018-09-03T06:57:07.119Z,33.2
2018-09-03T06:58:08.708Z,32.3
2018-09-03T06:59:10.278Z,32.3
2018-09-03T07:00:11.864Z,32.7
2018-09-03T07:01:13.438Z,32.3
2018-09-03T07:02:14.876Z,31.8
2018-09-03T07:03:16.279Z,32.3
2018-09-03T07:04:17.868Z,31.8
2018-09-03T07:05:19.435Z,32.7
2018-09-03T07:06:21.027Z,32.3
2018-09-03T07:07:22.591Z,33.2
2018-09-03T07:08:23.993Z,42.5
2018-09-03T07:09:25.810Z,47.4
2018-09-03T07:10:27.391Z,48.9
2018-09-03T07:11:28.957Z,50.8
2018-09-03T07:12:30.513Z,50.8
2018-09-03T07:13:32.085Z,51.3
2018-09-03T07:14:33.913Z,51.3
2018-09-03T07:15:35.695Z,50.3
2018-09-03T07:16:37.266Z,50.3
2018-09-03T07:17:38.690Z,49.9
2018-09-03T07:18:40.541Z,50.8
2018-09-03T07:19:42.005Z,49.9
2018-09-03T07:20:43.580Z,48.9
2018-09-03T07:21:45.167Z,49.4
2018-09-03T07:22:46.777Z,49.4
2018-09-03T07:23:48.338Z,48.4
2018-09-03T07:24:49.936Z,48.4
2018-09-03T07:25:51.497Z,47.9
2018-09-03T07:26:53.074Z,47.9
2018-09-03T07:27:54.634Z,47.4
2018-09-03T07:28:56.576Z,46.9
2018-09-03T07:29:58.380Z,46.9
2018-09-03T07:30:59.785Z,46.9
2018-09-03T07:32:01.406Z,46.4
2018-09-03T07:33:02.983Z,45.9
2018-09-03T07:34:04.391Z,45.5
2018-09-03T07:35:05.935Z,45.9
2018-09-03T07:36:07.624Z,45.5
2018-09-03T07:37:09.190Z,45
2018-09-03T07:38:11.022Z,45
2018-09-03T07:39:12.611Z,44.5
2018-09-03T07:40:14.388Z,44
2018-09-03T07:41:16.176Z,44.5
2018-09-03T07:42:17.738Z,43.5
2018-09-03T07:43:19.157Z,44.5
2018-09-03T07:44:20.721Z,44
2018-09-03T07:45:22.127Z,44
2018-09-03T07:46:23.680Z,43.5
2018-09-03T07:47:25.239Z,43
2018-09-03T07:48:26.844Z,43.5
2018-09-03T07:49:28.426Z,43
2018-09-03T07:50:30.005Z,43.5
2018-09-03T07:51:31.459Z,43
2018-09-03T07:52:33.052Z,42.5
2018-09-03T07:53:34.464Z,42.5
2018-09-03T07:54:36.047Z,41.5
2018-09-03T07:55:37.629Z,42.5
2018-09-03T07:56:39.261Z,41.5
2018-09-03T07:57:40.818Z,41.5
2018-09-03T07:58:42.385Z,41.5
2018-09-03T07:59:43.987Z,41.5
2018-09-03T08:00:45.626Z,41.5
2018-09-03T08:01:47.207Z,41.1
2018-09-03T08:02:48.774Z,40.6
2018-09-03T08:03:50.363Z,41.1
2018-09-03T08:04:51.926Z,41.1
2018-09-03T08:05:53.506Z,41.1
2018-09-03T08:06:55.077Z,40.6
2018-09-03T08:07:56.657Z,40.6
2018-09-03T08:08:58.253Z,40.1
2018-09-03T08:09:59.896Z,40.1
2018-09-03T08:11:01.444Z,39.6
2018-09-03T08:12:03.045Z,39.6
2018-09-03T08:13:05.108Z,39.6
2018-09-03T08:14:06.690Z,39.6
2018-09-03T08:15:08.290Z,39.1
2018-09-03T08:16:09.883Z,39.6
2018-09-03T08:17:11.487Z,39.1
2018-09-03T08:18:12.889Z,39.6
2018-09-03T08:19:14.471Z,39.1
2018-09-03T08:20:16.053Z,39.1
2018-09-03T08:21:17.624Z,38.6
2018-09-03T08:22:19.199Z,39.1
2018-09-03T08:23:20.768Z,38.1
2018-09-03T08:24:22.188Z,39.1
2018-09-03T08:25:23.802Z,38.1
2018-09-03T08:26:25.378Z,39.1
2018-09-03T08:27:26.791Z,38.1
2018-09-03T08:28:28.196Z,38.6
2018-09-03T08:29:29.761Z,37.6
2018-09-03T08:30:31.379Z,37.6
2018-09-03T08:31:32.767Z,37.6
2018-09-03T08:32:34.395Z,38.1
2018-09-03T08:33:36.203Z,38.1
2018-09-03T08:34:37.781Z,37.6
2018-09-03T08:35:39.732Z,37.6
2018-09-03T08:36:41.361Z,37.1
2018-09-03T08:37:42.934Z,36.7
2018-09-03T08:38:44.539Z,36.7
2018-09-03T08:39:46.133Z,36.7
2018-09-03T08:40:47.788Z,36.7
2018-09-03T08:41:49.365Z,37.1
2018-09-03T08:42:50.968Z,36.7
2018-09-03T08:43:52.377Z,36.2
2018-09-03T08:44:54.490Z,35.7
2018-09-03T08:45:56.241Z,36.2
2018-09-03T08:46:57.825Z,35.7
2018-09-03T08:47:59.412Z,35.7
2018-09-03T08:49:00.988Z,35.7
2018-09-03T08:50:02.601Z,35.7
2018-09-03T08:51:04.198Z,36.2
2018-09-03T08:52:05.769Z,35.2
2018-09-03T08:53:07.340Z,35.2
2018-09-03T08:54:09.150Z,36.2
2018-09-03T08:55:10.739Z,36.2
2018-09-03T08:56:12.329Z,35.7
2018-09-03T08:57:13.923Z,36.7
2018-09-03T08:58:15.498Z,36.2
2018-09-03T08:59:17.289Z,35.7
2018-09-03T09:00:18.885Z,35.7
2018-09-03T09:01:20.489Z,36.7
2018-09-03T09:02:22.057Z,36.2
2018-09-03T09:03:23.639Z,36.2
2018-09-03T09:04:25.252Z,36.7
2018-09-03T09:05:26.836Z,36.2
2018-09-03T09:06:28.399Z,36.2
2018-09-03T09:07:29.999Z,37.1
2018-09-03T09:08:31.582Z,36.7
2018-09-03T09:09:33.170Z,36.2
2018-09-03T09:10:34.769Z,36.7
2018-09-03T09:11:36.330Z,37.1
2018-09-03T09:12:37.978Z,36.2
2018-09-03T09:13:39.553Z,36.7
2018-09-03T09:14:40.969Z,36.2
2018-09-03T09:15:42.557Z,36.7
2018-09-03T09:16:44.130Z,36.7
2018-09-03T09:17:45.756Z,36.7
2018-09-03T09:18:47.177Z,36.2
2018-09-03T09:19:48.744Z,36.7
2018-09-03T09:20:50.349Z,36.7
2018-09-03T09:21:51.790Z,36.7
2018-09-03T09:22:53.377Z,36.2
2018-09-03T09:23:54.998Z,36.2
2018-09-03T09:24:56.882Z,36.2
2018-09-03T09:25:58.417Z,36.2
2018-09-03T09:27:00.032Z,35.7
2018-09-03T09:28:01.609Z,36.7
2018-09-03T09:29:03.189Z,35.7
2018-09-03T09:30:04.785Z,35.7
2018-09-03T09:31:06.399Z,36.7
2018-09-03T09:32:07.973Z,35.7
2018-09-03T09:33:09.561Z,35.7
2018-09-03T09:34:11.179Z,36.7
2018-09-03T09:35:12.745Z,35.7
2018-09-03T09:36:14.145Z,35.7
2018-09-03T09:37:15.763Z,35.7
2018-09-03T09:38:17.320Z,35.7
2018-09-03T09:39:18.889Z,35.7
2018-09-03T09:40:20.473Z,35.7
2018-09-03T09:41:22.134Z,35.2
2018-09-03T09:42:23.698Z,35.7
2018-09-03T09:43:25.511Z,36.2
2018-09-03T09:44:27.143Z,35.7
2018-09-03T09:45:28.756Z,35.7
2018-09-03T09:46:30.338Z,35.7
2018-09-03T09:47:31.934Z,35.7
2018-09-03T09:48:33.530Z,35.2
2018-09-03T09:49:35.093Z,35.7
2018-09-03T09:50:36.685Z,35.7
2018-09-03T09:51:38.263Z,35.2
2018-09-03T09:52:39.826Z,35.2
2018-09-03T09:53:41.441Z,34.2
2018-09-03T09:54:43.110Z,35.2
2018-09-03T09:55:44.721Z,35.2
2018-09-03T09:56:46.334Z,35.2
2018-09-03T09:57:47.975Z,35.2
2018-09-03T09:58:49.571Z,35.2
2018-09-03T09:59:51.150Z,34.7
2018-09-03T10:00:52.708Z,35.2
2018-09-03T10:01:54.276Z,34.7
2018-09-03T10:02:55.857Z,34.7
2018-09-03T10:03:57.425Z,34.7
2018-09-03T10:04:59.013Z,34.7
2018-09-03T10:06:00.618Z,34.7
2018-09-03T10:07:02.016Z,35.2
2018-09-03T10:08:03.619Z,34.2
2018-09-03T10:09:05.173Z,34.7
2018-09-03T10:10:06.812Z,34.2
2018-09-03T10:11:08.408Z,34.7
2018-09-03T10:12:09.977Z,34.2
2018-09-03T10:13:11.572Z,34.7
2018-09-03T10:14:12.995Z,35.2
2018-09-03T10:15:14.592Z,33.7
2018-09-03T10:16:16.178Z,34.7
2018-09-03T10:17:17.740Z,35.2
2018-09-03T10:18:19.152Z,34.2
2018-09-03T10:19:20.738Z,34.7
2018-09-03T10:20:22.318Z,34.2
2018-09-03T10:21:23.905Z,33.7
2018-09-03T10:22:25.495Z,34.2
2018-09-03T10:23:27.071Z,34.7
2018-09-03T10:24:28.657Z,34.7
2018-09-03T10:25:30.223Z,35.2
2018-09-03T10:26:31.784Z,33.7
2018-09-03T10:27:33.578Z,33.7
2018-09-03T10:28:35.156Z,34.2
2018-09-03T10:29:36.753Z,34.2
2018-09-03T10:30:38.321Z,33.7
2018-09-03T10:31:39.908Z,33.2
2018-09-03T10:32:41.521Z,33.7
2018-09-03T10:33:43.130Z,33.2
2018-09-03T10:34:44.706Z,33.2
2018-09-03T10:35:46.305Z,32.7
2018-09-03T10:36:47.886Z,32.7
2018-09-03T10:37:49.461Z,33.2
2018-09-03T10:38:51.052Z,32.7
2018-09-03T10:39:52.460Z,33.2
2018-09-03T10:40:54.019Z,34.2
2018-09-03T10:41:55.597Z,33.2
2018-09-03T10:42:57.166Z,33.2
2018-09-03T10:43:58.590Z,33.7
2018-09-03T10:45:00.177Z,33.7
2018-09-03T10:46:01.775Z,33.7
2018-09-03T10:47:04.059Z,33.7
2018-09-03T10:48:05.806Z,33.7
2018-09-03T10:49:07.388Z,33.7
2018-09-03T10:50:08.948Z,33.7
2018-09-03T10:51:10.515Z,33.7
2018-09-03T10:52:12.113Z,34.2
2018-09-03T10:53:13.553Z,33.7
2018-09-03T10:54:15.130Z,34.2
2018-09-03T10:55:16.952Z,34.2
2018-09-03T10:56:18.759Z,34.7
2018-09-03T10:57:20.350Z,34.2
2018-09-03T10:58:21.917Z,35.2
2018-09-03T10:59:23.523Z,34.2
2018-09-03T11:00:25.101Z,34.2
2018-09-03T11:01:26.674Z,33.7
2018-09-03T11:02:28.252Z,34.2
2018-09-03T11:03:29.843Z,34.7
2018-09-03T11:04:31.430Z,34.7
2018-09-03T11:05:33.018Z,34.2
2018-09-03T11:06:34.448Z,34.2
2018-09-03T11:07:36.316Z,33.7
2018-09-03T11:08:37.906Z,34.7
2018-09-03T11:09:39.483Z,33.7
2018-09-03T11:10:41.085Z,34.7
2018-09-03T11:11:42.677Z,34.7
2018-09-03T11:12:44.267Z,34.7
2018-09-03T11:13:45.908Z,34.7
2018-09-03T11:14:47.519Z,34.2
2018-09-03T11:15:49.111Z,34.2
2018-09-03T11:16:50.696Z,34.7
2018-09-03T11:17:52.270Z,34.2
2018-09-03T11:18:53.858Z,34.2
2018-09-03T11:19:55.746Z,34.7
2018-09-03T11:20:57.656Z,34.7
2018-09-03T11:21:59.363Z,34.7
2018-09-03T11:23:00.602Z,33.7
2018-09-03T11:24:02.198Z,34.7
2018-09-03T11:25:03.798Z,34.7
2018-09-03T11:26:05.395Z,34.2
2018-09-03T11:27:06.988Z,34.2
2018-09-03T11:28:08.580Z,34.2
2018-09-03T11:29:10.175Z,34.2
2018-09-03T11:30:11.804Z,34.2
2018-09-03T11:31:13.420Z,34.2
2018-09-03T11:32:14.990Z,34.7
2018-09-03T11:33:16.429Z,34.7
2018-09-03T11:34:17.838Z,34.2
2018-09-03T11:35:19.551Z,34.2
2018-09-03T11:36:21.139Z,34.2
2018-09-03T11:37:22.717Z,33.7
2018-09-03T11:38:24.297Z,34.2
2018-09-03T11:39:25.907Z,34.2
2018-09-03T11:40:27.329Z,34.7
2018-09-03T11:41:29.103Z,33.7
2018-09-03T11:42:30.692Z,33.7
2018-09-03T11:43:32.260Z,33.7
2018-09-03T11:44:33.848Z,34.2
2018-09-03T11:45:35.268Z,34.7
2018-09-03T11:46:36.880Z,33.7
2018-09-03T11:47:38.683Z,33.7
2018-09-03T11:48:40.098Z,34.2
2018-09-03T11:49:41.668Z,34.2
2018-09-03T11:50:43.499Z,33.7
2018-09-03T11:51:45.091Z,33.2
2018-09-03T11:52:46.697Z,33.7
2018-09-03T11:53:48.320Z,33.7
2018-09-03T11:54:49.900Z,34.2
2018-09-03T11:55:51.732Z,33.7
2018-09-03T11:56:53.325Z,33.7
2018-09-03T11:57:54.907Z,33.7
2018-09-03T11:58:56.497Z,33.7
2018-09-03T11:59:58.095Z,33.7
2018-09-03T12:00:59.503Z,33.7
2018-09-03T12:02:01.494Z,33.2
2018-09-03T12:03:03.278Z,33.2
2018-09-03T12:04:04.859Z,33.7
2018-09-03T12:05:06.447Z,33.7
2018-09-03T12:06:08.267Z,33.7
2018-09-03T12:07:09.850Z,33.7
2018-09-03T12:08:11.446Z,33.7
2018-09-03T12:09:13.066Z,33.7
2018-09-03T12:10:14.666Z,33.7
2018-09-03T12:11:15.920Z,33.7
2018-09-03T12:12:17.505Z,34.2
2018-09-03T12:13:19.099Z,33.7
2018-09-03T12:14:20.543Z,33.7
2018-09-03T12:15:22.127Z,33.7
2018-09-03T12:16:23.706Z,33.7
2018-09-03T12:17:25.299Z,33.7
2018-09-03T12:18:26.738Z,33.7
2018-09-03T12:19:28.141Z,33.7
2018-09-03T12:20:29.539Z,33.2
2018-09-03T12:21:31.123Z,32.3
2018-09-03T12:22:32.708Z,33.2
2018-09-03T12:23:34.357Z,33.2
2018-09-03T12:24:35.786Z,33.2
2018-09-03T12:25:37.457Z,33.2
2018-09-03T12:26:39.081Z,32.7
2018-09-03T12:27:41.150Z,32.3
2018-09-03T12:28:42.682Z,33.2
2018-09-03T12:29:44.319Z,33.7
2018-09-03T12:30:45.949Z,33.2
2018-09-03T12:31:47.562Z,33.2
2018-09-03T12:32:49.137Z,32.7
2018-09-03T12:33:50.732Z,33.2
2018-09-03T12:34:52.305Z,33.2
2018-09-03T12:35:53.887Z,33.7
2018-09-03T12:36:55.618Z,33.7
2018-09-03T12:37:57.313Z,34.2
2018-09-03T12:38:58.900Z,33.7
2018-09-03T12:40:00.532Z,33.7
2018-09-03T12:41:02.097Z,34.2
2018-09-03T12:42:03.658Z,33.7
2018-09-03T12:43:05.276Z,33.2
2018-09-03T12:44:06.892Z,34.2
2018-09-03T12:45:08.699Z,33.7
2018-09-03T12:46:10.274Z,34.7
2018-09-03T12:47:11.839Z,34.2
2018-09-03T12:48:13.240Z,34.7
2018-09-03T12:49:14.816Z,33.7
2018-09-03T12:50:17.086Z,34.2
2018-09-03T12:51:19.229Z,34.2
2018-09-03T12:52:20.969Z,34.2
2018-09-03T12:53:22.542Z,34.7
2018-09-03T12:54:24.114Z,34.7
2018-09-03T12:55:25.520Z,35.2
2018-09-03T12:56:27.101Z,34.2
2018-09-03T12:57:28.681Z,34.7
2018-09-03T12:58:30.267Z,35.2
2018-09-03T12:59:31.831Z,35.2
2018-09-03T13:00:40.081Z,34.7
2018-09-03T13:01:41.647Z,34.7
2018-09-03T13:02:43.353Z,34.2
2018-09-03T13:03:45.003Z,34.2
2018-09-03T13:04:46.608Z,34.7
2018-09-03T13:05:48.218Z,33.7
2018-09-03T13:06:49.796Z,34.7
2018-09-03T13:07:51.376Z,34.2
2018-09-03T13:08:52.974Z,35.2
2018-09-03T13:09:54.548Z,34.7
2018-09-03T13:10:56.138Z,34.2
2018-09-03T13:11:57.559Z,34.7
2018-09-03T13:12:59.588Z,34.2
2018-09-03T13:14:01.303Z,34.2
2018-09-03T13:15:02.722Z,33.7
2018-09-03T13:16:04.340Z,34.2
2018-09-03T13:17:05.917Z,33.7
2018-09-03T13:18:07.505Z,34.2
2018-09-03T13:19:09.116Z,34.2
2018-09-03T13:20:10.691Z,34.7
2018-09-03T13:21:12.270Z,34.2
2018-09-03T13:22:13.855Z,34.2
2018-09-03T13:23:15.448Z,33.7
2018-09-03T13:24:17.030Z,34.2
2018-09-03T13:25:18.626Z,33.7
2018-09-03T13:26:20.207Z,34.2
2018-09-03T13:27:21.781Z,33.7
2018-09-03T13:28:23.349Z,34.7
2018-09-03T13:29:24.954Z,34.7
2018-09-03T13:30:26.555Z,34.2
2018-09-03T13:31:28.144Z,34.2
2018-09-03T13:32:29.741Z,33.7
2018-09-03T13:33:31.349Z,34.2
2018-09-03T13:34:32.908Z,33.7
2018-09-03T13:35:34.493Z,33.2
2018-09-03T13:36:36.079Z,34.2
2018-09-03T13:37:37.631Z,33.7
2018-09-03T13:38:38.917Z,33.2
2018-09-03T13:39:40.522Z,33.7
2018-09-03T13:40:42.093Z,34.2
2018-09-03T13:41:44.109Z,34.2